sensor_id;sensor_type;location;lat;lon;timestamp;pressure;altitude;pressure_sealevel;temperature;humidity
48156;BME280;35568;48.104;11.782;2024-03-06T00:01:17;95186.80;;;6.89;56.43
48156;BME280;35568;48.104;11.782;2024-03-06T00:03:44;95186.39;;;7.19;56.44
48156;BME280;35568;48.104;11.782;2024-03-06T00:06:10;95183.18;;;6.87;56.49
48156;BME280;35568;48.104;11.782;2024-03-06T00:08:38;95183.47;;;6.90;56.81
48156;BME280;35568;48.104;11.782;2024-03-06T00:11:05;95186.01;;;7.06;56.43
48156;BME280;35568;48.104;11.782;2024-03-06T00:13:32;95185.52;;;7.30;56.30
48156;BME280;35568;48.104;11.782;2024-03-06T00:15:59;95188.13;;;7.06;56.49
48156;BME280;35568;48.104;11.782;2024-03-06T00:18:26;95192.28;;;7.05;56.35
48156;BME280;35568;48.104;11.782;2024-03-06T00:20:53;95198.87;;;6.50;56.72
48156;BME280;35568;48.104;11.782;2024-03-06T00:23:20;95194.93;;;6.84;56.68
48156;BME280;35568;48.104;11.782;2024-03-06T00:25:47;95193.27;;;7.04;56.63
48156;BME280;35568;48.104;11.782;2024-03-06T00:28:14;95192.88;;;7.22;56.34
48156;BME280;35568;48.104;11.782;2024-03-06T00:30:41;95190.54;;;7.09;56.18
48156;BME280;35568;48.104;11.782;2024-03-06T00:33:08;95190.08;;;7.10;56.19
48156;BME280;35568;48.104;11.782;2024-03-06T00:35:35;95189.50;;;6.98;56.30
48156;BME280;35568;48.104;11.782;2024-03-06T00:38:01;95187.71;;;6.77;56.79
48156;BME280;35568;48.104;11.782;2024-03-06T00:40:29;95186.28;;;6.65;56.63
48156;BME280;35568;48.104;11.782;2024-03-06T00:42:56;95184.58;;;6.79;57.35
48156;BME280;35568;48.104;11.782;2024-03-06T00:45:23;95184.58;;;6.47;57.70
48156;BME280;35568;48.104;11.782;2024-03-06T00:47:50;95184.60;;;6.47;57.40
48156;BME280;35568;48.104;11.782;2024-03-06T00:50:17;95184.83;;;6.57;57.57
48156;BME280;35568;48.104;11.782;2024-03-06T00:52:44;95184.66;;;6.76;57.59
48156;BME280;35568;48.104;11.782;2024-03-06T00:55:11;95185.02;;;6.81;56.98
48156;BME280;35568;48.104;11.782;2024-03-06T00:57:38;95184.83;;;6.84;57.51
48156;BME280;35568;48.104;11.782;2024-03-06T01:00:06;95185.87;;;6.61;57.49
48156;BME280;35568;48.104;11.782;2024-03-06T01:02:33;95183.63;;;6.67;57.40
48156;BME280;35568;48.104;11.782;2024-03-06T01:05:01;95183.91;;;6.76;57.45
48156;BME280;35568;48.104;11.782;2024-03-06T01:07:28;95185.20;;;6.67;57.59
48156;BME280;35568;48.104;11.782;2024-03-06T01:09:55;95184.34;;;7.03;57.74
48156;BME280;35568;48.104;11.782;2024-03-06T01:12:22;95182.34;;;6.98;57.59
48156;BME280;35568;48.104;11.782;2024-03-06T01:14:49;95180.03;;;6.78;57.58
48156;BME280;35568;48.104;11.782;2024-03-06T01:17:16;95176.56;;;6.61;57.66
48156;BME280;35568;48.104;11.782;2024-03-06T01:19:43;95176.32;;;6.66;57.36
48156;BME280;35568;48.104;11.782;2024-03-06T01:22:10;95177.70;;;6.95;57.35
48156;BME280;35568;48.104;11.782;2024-03-06T01:24:37;95178.83;;;6.62;57.68
48156;BME280;35568;48.104;11.782;2024-03-06T01:27:04;95178.90;;;6.85;57.65
48156;BME280;35568;48.104;11.782;2024-03-06T01:29:32;95179.15;;;6.64;57.49
48156;BME280;35568;48.104;11.782;2024-03-06T01:31:59;95179.76;;;6.71;57.48
48156;BME280;35568;48.104;11.782;2024-03-06T01:34:26;95179.31;;;6.59;57.84
48156;BME280;35568;48.104;11.782;2024-03-06T01:36:53;95180.57;;;6.95;57.90
48156;BME280;35568;48.104;11.782;2024-03-06T01:39:20;95175.68;;;6.51;57.86
48156;BME280;35568;48.104;11.782;2024-03-06T01:41:48;95177.91;;;6.79;57.79
48156;BME280;35568;48.104;11.782;2024-03-06T01:44:16;95172.10;;;6.84;57.78
48156;BME280;35568;48.104;11.782;2024-03-06T01:46:43;95171.20;;;6.74;57.54
48156;BME280;35568;48.104;11.782;2024-03-06T01:49:11;95169.76;;;6.86;57.75
48156;BME280;35568;48.104;11.782;2024-03-06T01:51:39;95169.84;;;7.00;57.64
48156;BME280;35568;48.104;11.782;2024-03-06T01:54:07;95167.57;;;6.86;57.54
48156;BME280;35568;48.104;11.782;2024-03-06T01:56:35;95164.39;;;6.99;57.36
48156;BME280;35568;48.104;11.782;2024-03-06T01:59:06;95166.22;;;6.90;57.07
48156;BME280;35568;48.104;11.782;2024-03-06T02:01:33;95163.11;;;7.04;57.22
48156;BME280;35568;48.104;11.782;2024-03-06T02:04:00;95159.90;;;6.97;57.26
48156;BME280;35568;48.104;11.782;2024-03-06T02:06:28;95159.32;;;6.71;57.28
48156;BME280;35568;48.104;11.782;2024-03-06T02:08:55;95161.34;;;6.77;57.33
48156;BME280;35568;48.104;11.782;2024-03-06T02:11:23;95159.29;;;6.69;57.75
48156;BME280;35568;48.104;11.782;2024-03-06T02:13:50;95158.19;;;6.86;57.55
48156;BME280;35568;48.104;11.782;2024-03-06T02:16:17;95158.46;;;6.98;57.47
48156;BME280;35568;48.104;11.782;2024-03-06T02:18:52;95157.18;;;7.07;57.36
48156;BME280;35568;48.104;11.782;2024-03-06T02:21:19;95156.62;;;6.81;57.20
48156;BME280;35568;48.104;11.782;2024-03-06T02:23:47;95157.94;;;6.61;57.28
48156;BME280;35568;48.104;11.782;2024-03-06T02:26:14;95160.50;;;6.94;57.17
48156;BME280;35568;48.104;11.782;2024-03-06T02:28:47;95163.30;;;7.18;57.24
48156;BME280;35568;48.104;11.782;2024-03-06T02:31:14;95166.73;;;6.43;57.49
48156;BME280;35568;48.104;11.782;2024-03-06T02:33:42;95170.24;;;6.23;56.49
48156;BME280;35568;48.104;11.782;2024-03-06T02:36:09;95170.35;;;6.02;55.28
48156;BME280;35568;48.104;11.782;2024-03-06T02:38:36;95177.16;;;5.73;56.01
48156;BME280;35568;48.104;11.782;2024-03-06T02:41:03;95180.27;;;5.68;55.78
48156;BME280;35568;48.104;11.782;2024-03-06T02:43:31;95181.25;;;5.86;55.90
48156;BME280;35568;48.104;11.782;2024-03-06T02:45:58;95183.20;;;5.28;55.44
48156;BME280;35568;48.104;11.782;2024-03-06T02:48:25;95185.27;;;5.44;55.66
48156;BME280;35568;48.104;11.782;2024-03-06T02:50:52;95185.27;;;5.27;55.51
48156;BME280;35568;48.104;11.782;2024-03-06T02:53:19;95185.34;;;5.05;56.83
48156;BME280;35568;48.104;11.782;2024-03-06T02:55:47;95181.69;;;4.61;56.21
48156;BME280;35568;48.104;11.782;2024-03-06T02:58:14;95181.54;;;4.62;56.61
48156;BME280;35568;48.104;11.782;2024-03-06T03:00:42;95178.75;;;4.48;56.66
48156;BME280;35568;48.104;11.782;2024-03-06T03:03:09;95180.90;;;4.35;56.70
48156;BME280;35568;48.104;11.782;2024-03-06T03:05:36;95183.48;;;4.18;56.73
48156;BME280;35568;48.104;11.782;2024-03-06T03:08:03;95187.39;;;4.42;57.18
48156;BME280;35568;48.104;11.782;2024-03-06T03:10:30;95190.50;;;4.50;56.48
48156;BME280;35568;48.104;11.782;2024-03-06T03:12:58;95189.83;;;3.97;56.65
48156;BME280;35568;48.104;11.782;2024-03-06T03:15:25;95188.06;;;4.13;56.67
48156;BME280;35568;48.104;11.782;2024-03-06T03:17:52;95182.94;;;3.85;56.96
48156;BME280;35568;48.104;11.782;2024-03-06T03:20:19;95182.52;;;4.05;57.09
48156;BME280;35568;48.104;11.782;2024-03-06T03:22:45;95180.50;;;3.87;57.54
48156;BME280;35568;48.104;11.782;2024-03-06T03:25:14;95182.95;;;3.74;57.26
48156;BME280;35568;48.104;11.782;2024-03-06T03:27:43;95178.88;;;3.98;56.88
48156;BME280;35568;48.104;11.782;2024-03-06T03:30:10;95181.86;;;4.19;57.18
48156;BME280;35568;48.104;11.782;2024-03-06T03:32:37;95184.92;;;4.17;57.24
48156;BME280;35568;48.104;11.782;2024-03-06T03:35:05;95185.41;;;4.22;56.94
48156;BME280;35568;48.104;11.782;2024-03-06T03:37:32;95186.50;;;4.22;56.90
48156;BME280;35568;48.104;11.782;2024-03-06T03:39:59;95186.25;;;3.93;56.97
48156;BME280;35568;48.104;11.782;2024-03-06T03:42:26;95187.21;;;3.95;57.15
48156;BME280;35568;48.104;11.782;2024-03-06T03:44:53;95188.02;;;3.86;57.25
48156;BME280;35568;48.104;11.782;2024-03-06T03:47:20;95191.21;;;4.05;56.98
48156;BME280;35568;48.104;11.782;2024-03-06T03:49:47;95190.60;;;4.15;56.94
48156;BME280;35568;48.104;11.782;2024-03-06T03:52:16;95192.25;;;4.24;56.73
48156;BME280;35568;48.104;11.782;2024-03-06T03:54:43;95193.93;;;3.92;56.78
48156;BME280;35568;48.104;11.782;2024-03-06T03:57:09;95193.32;;;4.29;56.58
48156;BME280;35568;48.104;11.782;2024-03-06T03:59:38;95192.74;;;4.00;56.64
48156;BME280;35568;48.104;11.782;2024-03-06T04:03:00;95194.76;;;4.13;56.25
48156;BME280;35568;48.104;11.782;2024-03-06T04:05:28;95198.01;;;4.16;56.42
48156;BME280;35568;48.104;11.782;2024-03-06T04:07:54;95202.67;;;4.05;56.64
48156;BME280;35568;48.104;11.782;2024-03-06T04:10:21;95201.81;;;3.90;57.25
48156;BME280;35568;48.104;11.782;2024-03-06T04:12:48;95205.44;;;3.76;57.79
48156;BME280;35568;48.104;11.782;2024-03-06T04:15:15;95205.84;;;3.67;57.49
48156;BME280;35568;48.104;11.782;2024-03-06T04:17:42;95204.55;;;3.54;57.38
48156;BME280;35568;48.104;11.782;2024-03-06T04:20:09;95206.57;;;3.47;57.53
48156;BME280;35568;48.104;11.782;2024-03-06T04:22:36;95205.60;;;3.32;57.67
48156;BME280;35568;48.104;11.782;2024-03-06T04:25:03;95207.56;;;3.48;57.53
48156;BME280;35568;48.104;11.782;2024-03-06T04:27:31;95205.26;;;3.28;57.58
48156;BME280;35568;48.104;11.782;2024-03-06T04:29:58;95209.36;;;3.28;57.83
48156;BME280;35568;48.104;11.782;2024-03-06T04:32:24;95216.62;;;3.29;57.67
48156;BME280;35568;48.104;11.782;2024-03-06T04:34:51;95218.76;;;3.40;57.82
48156;BME280;35568;48.104;11.782;2024-03-06T04:37:18;95225.10;;;3.82;57.51
48156;BME280;35568;48.104;11.782;2024-03-06T04:39:45;95222.50;;;4.11;57.13
48156;BME280;35568;48.104;11.782;2024-03-06T04:42:12;95223.21;;;4.00;57.03
48156;BME280;35568;48.104;11.782;2024-03-06T04:44:39;95223.06;;;3.90;56.48
48156;BME280;35568;48.104;11.782;2024-03-06T04:47:06;95224.65;;;3.93;56.68
48156;BME280;35568;48.104;11.782;2024-03-06T04:49:33;95226.33;;;4.07;56.82
48156;BME280;35568;48.104;11.782;2024-03-06T04:52:00;95229.78;;;3.65;56.41
48156;BME280;35568;48.104;11.782;2024-03-06T04:54:27;95230.40;;;3.38;56.64
48156;BME280;35568;48.104;11.782;2024-03-06T04:56:54;95232.29;;;3.69;56.73
48156;BME280;35568;48.104;11.782;2024-03-06T04:59:21;95236.75;;;3.80;56.61
48156;BME280;35568;48.104;11.782;2024-03-06T05:01:49;95239.13;;;3.57;57.23
48156;BME280;35568;48.104;11.782;2024-03-06T05:04:18;95243.95;;;3.23;57.06
48156;BME280;35568;48.104;11.782;2024-03-06T05:06:45;95243.79;;;3.19;57.31
48156;BME280;35568;48.104;11.782;2024-03-06T05:09:12;95249.90;;;3.25;57.49
48156;BME280;35568;48.104;11.782;2024-03-06T05:11:40;95252.79;;;3.06;57.61
48156;BME280;35568;48.104;11.782;2024-03-06T05:14:07;95253.86;;;3.29;57.47
48156;BME280;35568;48.104;11.782;2024-03-06T05:16:36;95255.16;;;2.75;58.20
48156;BME280;35568;48.104;11.782;2024-03-06T05:19:03;95256.09;;;2.93;58.07
48156;BME280;35568;48.104;11.782;2024-03-06T05:21:31;95255.22;;;2.95;58.00
48156;BME280;35568;48.104;11.782;2024-03-06T05:23:59;95255.87;;;3.42;58.05
48156;BME280;35568;48.104;11.782;2024-03-06T05:26:26;95259.05;;;3.08;57.80
48156;BME280;35568;48.104;11.782;2024-03-06T05:28:53;95262.36;;;3.19;58.24
48156;BME280;35568;48.104;11.782;2024-03-06T05:31:20;95261.80;;;2.85;58.32
48156;BME280;35568;48.104;11.782;2024-03-06T05:33:47;95264.80;;;2.91;58.56
48156;BME280;35568;48.104;11.782;2024-03-06T05:36:14;95265.63;;;2.64;58.99
48156;BME280;35568;48.104;11.782;2024-03-06T05:38:41;95269.38;;;2.97;58.80
48156;BME280;35568;48.104;11.782;2024-03-06T05:41:08;95268.99;;;2.74;58.66
48156;BME280;35568;48.104;11.782;2024-03-06T05:43:35;95270.67;;;3.05;58.71
48156;BME280;35568;48.104;11.782;2024-03-06T05:46:02;95276.23;;;2.81;58.25
48156;BME280;35568;48.104;11.782;2024-03-06T05:48:30;95278.81;;;3.48;58.01
48156;BME280;35568;48.104;11.782;2024-03-06T05:50:56;95281.01;;;3.08;57.71
48156;BME280;35568;48.104;11.782;2024-03-06T05:53:23;95280.70;;;3.41;58.03
48156;BME280;35568;48.104;11.782;2024-03-06T05:55:51;95283.19;;;3.09;57.75
48156;BME280;35568;48.104;11.782;2024-03-06T05:58:18;95285.41;;;3.42;58.17
48156;BME280;35568;48.104;11.782;2024-03-06T06:00:45;95288.82;;;2.98;57.81
48156;BME280;35568;48.104;11.782;2024-03-06T06:03:12;95290.79;;;3.29;57.43
48156;BME280;35568;48.104;11.782;2024-03-06T06:05:39;95293.40;;;3.42;57.59
48156;BME280;35568;48.104;11.782;2024-03-06T06:08:06;95297.81;;;3.72;57.22
48156;BME280;35568;48.104;11.782;2024-03-06T06:10:33;95296.70;;;3.34;56.89
48156;BME280;35568;48.104;11.782;2024-03-06T06:13:01;95299.06;;;2.71;57.87
48156;BME280;35568;48.104;11.782;2024-03-06T06:15:28;95304.79;;;3.17;57.71
48156;BME280;35568;48.104;11.782;2024-03-06T06:17:55;95309.04;;;2.98;58.22
48156;BME280;35568;48.104;11.782;2024-03-06T06:20:22;95309.46;;;2.80;57.78
48156;BME280;35568;48.104;11.782;2024-03-06T06:22:50;95311.94;;;3.12;57.90
48156;BME280;35568;48.104;11.782;2024-03-06T06:25:17;95314.07;;;3.27;57.33
48156;BME280;35568;48.104;11.782;2024-03-06T06:27:44;95319.95;;;3.31;57.23
48156;BME280;35568;48.104;11.782;2024-03-06T06:30:11;95316.12;;;3.33;57.59
48156;BME280;35568;48.104;11.782;2024-03-06T06:32:38;95319.21;;;2.98;57.58
48156;BME280;35568;48.104;11.782;2024-03-06T06:35:07;95318.71;;;2.95;57.30
48156;BME280;35568;48.104;11.782;2024-03-06T06:37:34;95321.90;;;3.52;57.51
48156;BME280;35568;48.104;11.782;2024-03-06T06:40:01;95324.50;;;3.02;58.09
48156;BME280;35568;48.104;11.782;2024-03-06T06:42:28;95327.03;;;2.81;58.01
48156;BME280;35568;48.104;11.782;2024-03-06T06:44:56;95328.32;;;2.71;58.45
48156;BME280;35568;48.104;11.782;2024-03-06T06:47:23;95330.74;;;2.58;58.33
48156;BME280;35568;48.104;11.782;2024-03-06T06:49:50;95331.69;;;3.11;57.82
48156;BME280;35568;48.104;11.782;2024-03-06T06:52:17;95331.53;;;2.65;57.96
48156;BME280;35568;48.104;11.782;2024-03-06T06:54:45;95336.18;;;3.23;58.14
48156;BME280;35568;48.104;11.782;2024-03-06T06:57:14;95333.42;;;2.85;58.20
48156;BME280;35568;48.104;11.782;2024-03-06T06:59:44;95331.12;;;2.93;57.93
48156;BME280;35568;48.104;11.782;2024-03-06T07:02:12;95335.92;;;3.03;58.13
48156;BME280;35568;48.104;11.782;2024-03-06T07:04:41;95338.61;;;3.09;58.03
48156;BME280;35568;48.104;11.782;2024-03-06T07:07:10;95339.14;;;2.93;58.09
48156;BME280;35568;48.104;11.782;2024-03-06T07:09:43;95340.08;;;2.54;58.79
48156;BME280;35568;48.104;11.782;2024-03-06T07:12:10;95343.06;;;2.86;58.33
48156;BME280;35568;48.104;11.782;2024-03-06T07:14:37;95341.76;;;2.68;58.86
48156;BME280;35568;48.104;11.782;2024-03-06T07:17:03;95343.60;;;2.95;58.38
48156;BME280;35568;48.104;11.782;2024-03-06T07:19:30;95343.46;;;2.74;58.33
48156;BME280;35568;48.104;11.782;2024-03-06T07:21:57;95345.17;;;2.90;58.83
48156;BME280;35568;48.104;11.782;2024-03-06T07:24:24;95347.19;;;3.23;58.49
48156;BME280;35568;48.104;11.782;2024-03-06T07:26:52;95350.28;;;3.33;57.85
48156;BME280;35568;48.104;11.782;2024-03-06T07:29:19;95357.72;;;3.75;58.40
48156;BME280;35568;48.104;11.782;2024-03-06T07:31:46;95358.03;;;4.33;58.69
48156;BME280;35568;48.104;11.782;2024-03-06T07:34:13;95356.40;;;4.89;56.84
48156;BME280;35568;48.104;11.782;2024-03-06T07:36:39;95361.81;;;4.77;56.43
48156;BME280;35568;48.104;11.782;2024-03-06T07:39:06;95360.43;;;5.08;56.30
48156;BME280;35568;48.104;11.782;2024-03-06T07:41:33;95363.59;;;5.06;54.87
48156;BME280;35568;48.104;11.782;2024-03-06T07:44:00;95366.38;;;4.75;54.77
48156;BME280;35568;48.104;11.782;2024-03-06T07:46:27;95364.59;;;4.26;55.20
48156;BME280;35568;48.104;11.782;2024-03-06T07:48:54;95368.33;;;3.89;55.89
48156;BME280;35568;48.104;11.782;2024-03-06T07:51:21;95370.05;;;3.84;56.48
48156;BME280;35568;48.104;11.782;2024-03-06T07:53:47;95369.89;;;3.51;56.82
48156;BME280;35568;48.104;11.782;2024-03-06T07:56:15;95371.59;;;3.35;56.70
48156;BME280;35568;48.104;11.782;2024-03-06T07:58:41;95375.00;;;3.71;57.05
48156;BME280;35568;48.104;11.782;2024-03-06T08:01:08;95381.79;;;3.97;57.11
48156;BME280;35568;48.104;11.782;2024-03-06T08:03:35;95384.10;;;3.83;56.84
48156;BME280;35568;48.104;11.782;2024-03-06T08:06:09;95384.69;;;3.73;56.86
48156;BME280;35568;48.104;11.782;2024-03-06T08:08:36;95388.92;;;3.40;56.46
48156;BME280;35568;48.104;11.782;2024-03-06T08:11:03;95392.52;;;3.16;57.08
48156;BME280;35568;48.104;11.782;2024-03-06T08:13:30;95394.28;;;3.68;57.84
48156;BME280;35568;48.104;11.782;2024-03-06T08:15:57;95394.81;;;3.56;57.37
48156;BME280;35568;48.104;11.782;2024-03-06T08:18:24;95399.23;;;3.42;57.26
48156;BME280;35568;48.104;11.782;2024-03-06T08:20:51;95400.23;;;3.13;57.71
48156;BME280;35568;48.104;11.782;2024-03-06T08:23:18;95402.35;;;3.14;57.77
48156;BME280;35568;48.104;11.782;2024-03-06T08:25:45;95405.30;;;3.17;57.68
48156;BME280;35568;48.104;11.782;2024-03-06T08:28:12;95408.19;;;3.29;57.97
48156;BME280;35568;48.104;11.782;2024-03-06T08:30:38;95409.66;;;3.41;57.22
48156;BME280;35568;48.104;11.782;2024-03-06T08:33:06;95406.60;;;3.10;57.56
48156;BME280;35568;48.104;11.782;2024-03-06T08:35:33;95409.03;;;2.92;57.66
48156;BME280;35568;48.104;11.782;2024-03-06T08:38:00;95409.83;;;3.14;58.11
48156;BME280;35568;48.104;11.782;2024-03-06T08:40:28;95412.01;;;3.01;58.24
48156;BME280;35568;48.104;11.782;2024-03-06T08:42:57;95414.01;;;3.14;58.03
48156;BME280;35568;48.104;11.782;2024-03-06T08:45:24;95413.94;;;3.32;58.18
48156;BME280;35568;48.104;11.782;2024-03-06T08:47:51;95414.80;;;4.11;57.41
48156;BME280;35568;48.104;11.782;2024-03-06T08:50:18;95415.69;;;3.83;56.92
48156;BME280;35568;48.104;11.782;2024-03-06T08:52:45;95416.25;;;3.88;57.13
48156;BME280;35568;48.104;11.782;2024-03-06T08:55:12;95417.94;;;4.13;57.49
48156;BME280;35568;48.104;11.782;2024-03-06T08:57:39;95417.67;;;4.60;56.90
48156;BME280;35568;48.104;11.782;2024-03-06T09:00:07;95421.60;;;4.70;56.11
48156;BME280;35568;48.104;11.782;2024-03-06T09:02:34;95423.74;;;4.64;56.08
48156;BME280;35568;48.104;11.782;2024-03-06T09:05:01;95427.96;;;4.31;55.30
48156;BME280;35568;48.104;11.782;2024-03-06T09:07:28;95429.34;;;4.33;56.63
48156;BME280;35568;48.104;11.782;2024-03-06T09:09:55;95435.07;;;4.22;56.16
48156;BME280;35568;48.104;11.782;2024-03-06T09:12:22;95435.29;;;4.17;56.65
48156;BME280;35568;48.104;11.782;2024-03-06T09:14:49;95437.49;;;3.94;56.71
48156;BME280;35568;48.104;11.782;2024-03-06T09:17:15;95439.08;;;4.70;56.70
48156;BME280;35568;48.104;11.782;2024-03-06T09:19:42;95442.82;;;4.37;56.24
48156;BME280;35568;48.104;11.782;2024-03-06T09:22:10;95444.93;;;4.08;56.09
48156;BME280;35568;48.104;11.782;2024-03-06T09:24:38;95442.73;;;4.23;56.86
48156;BME280;35568;48.104;11.782;2024-03-06T09:27:05;95443.85;;;4.23;56.82
48156;BME280;35568;48.104;11.782;2024-03-06T09:29:32;95450.86;;;4.04;56.57
48156;BME280;35568;48.104;11.782;2024-03-06T09:31:59;95451.00;;;4.24;57.28
48156;BME280;35568;48.104;11.782;2024-03-06T09:34:25;95452.75;;;4.41;56.79
48156;BME280;35568;48.104;11.782;2024-03-06T09:36:52;95453.60;;;4.02;56.93
48156;BME280;35568;48.104;11.782;2024-03-06T09:39:19;95451.25;;;4.29;57.09
48156;BME280;35568;48.104;11.782;2024-03-06T09:41:47;95450.64;;;4.13;57.10
48156;BME280;35568;48.104;11.782;2024-03-06T09:44:14;95458.14;;;4.07;57.47
48156;BME280;35568;48.104;11.782;2024-03-06T09:46:43;95462.55;;;4.19;57.16
48156;BME280;35568;48.104;11.782;2024-03-06T09:49:11;95464.32;;;4.71;56.90
48156;BME280;35568;48.104;11.782;2024-03-06T09:51:39;95463.06;;;4.71;56.52
48156;BME280;35568;48.104;11.782;2024-03-06T09:54:07;95466.44;;;5.03;56.64
48156;BME280;35568;48.104;11.782;2024-03-06T09:56:35;95466.90;;;4.63;55.41
48156;BME280;35568;48.104;11.782;2024-03-06T09:59:04;95468.08;;;4.34;56.52
48156;BME280;35568;48.104;11.782;2024-03-06T10:01:33;95468.19;;;4.35;56.49
48156;BME280;35568;48.104;11.782;2024-03-06T10:04:19;95469.86;;;4.07;56.43
48156;BME280;35568;48.104;11.782;2024-03-06T10:06:46;95470.91;;;4.67;57.14
48156;BME280;35568;48.104;11.782;2024-03-06T10:09:17;95468.78;;;4.63;57.26
48156;BME280;35568;48.104;11.782;2024-03-06T10:11:44;95474.31;;;4.21;56.77
48156;BME280;35568;48.104;11.782;2024-03-06T10:14:12;95475.62;;;4.23;56.67
48156;BME280;35568;48.104;11.782;2024-03-06T10:16:52;95473.39;;;4.12;56.62
48156;BME280;35568;48.104;11.782;2024-03-06T10:19:21;95473.64;;;4.52;56.33
48156;BME280;35568;48.104;11.782;2024-03-06T10:21:49;95477.12;;;4.69;56.78
48156;BME280;35568;48.104;11.782;2024-03-06T10:24:20;95479.39;;;4.32;56.69
48156;BME280;35568;48.104;11.782;2024-03-06T10:26:47;95480.22;;;4.49;56.98
48156;BME280;35568;48.104;11.782;2024-03-06T10:29:16;95485.47;;;3.82;57.14
48156;BME280;35568;48.104;11.782;2024-03-06T10:31:51;95485.32;;;4.33;57.41
48156;BME280;35568;48.104;11.782;2024-03-06T10:34:19;95487.74;;;4.50;57.22
48156;BME280;35568;48.104;11.782;2024-03-06T10:36:50;95487.53;;;4.29;57.42
48156;BME280;35568;48.104;11.782;2024-03-06T10:39:22;95490.62;;;4.26;57.36
48156;BME280;35568;48.104;11.782;2024-03-06T10:41:52;95488.68;;;4.68;57.37
48156;BME280;35568;48.104;11.782;2024-03-06T10:44:21;95493.73;;;4.79;57.25
48156;BME280;35568;48.104;11.782;2024-03-06T10:46:54;95497.41;;;5.14;57.19
48156;BME280;35568;48.104;11.782;2024-03-06T10:49:22;95500.16;;;5.35;56.66
48156;BME280;35568;48.104;11.782;2024-03-06T10:51:51;95499.72;;;5.22;55.77
48156;BME280;35568;48.104;11.782;2024-03-06T10:54:19;95501.87;;;5.26;56.16
48156;BME280;35568;48.104;11.782;2024-03-06T10:56:48;95500.12;;;4.84;56.29
48156;BME280;35568;48.104;11.782;2024-03-06T10:59:17;95500.76;;;5.12;56.26
48156;BME280;35568;48.104;11.782;2024-03-06T11:01:47;95501.28;;;4.62;56.86
48156;BME280;35568;48.104;11.782;2024-03-06T11:04:21;95500.11;;;5.32;57.07
48156;BME280;35568;48.104;11.782;2024-03-06T11:06:49;95503.77;;;5.77;56.05
48156;BME280;35568;48.104;11.782;2024-03-06T11:09:17;95505.08;;;5.30;56.37
48156;BME280;35568;48.104;11.782;2024-03-06T11:11:48;95506.24;;;5.40;55.63
48156;BME280;35568;48.104;11.782;2024-03-06T11:14:15;95503.10;;;5.56;55.62
48156;BME280;35568;48.104;11.782;2024-03-06T11:17:00;95508.62;;;5.72;55.52
48156;BME280;35568;48.104;11.782;2024-03-06T11:19:28;95509.21;;;5.86;55.36
48156;BME280;35568;48.104;11.782;2024-03-06T11:21:55;95508.27;;;5.70;55.05
48156;BME280;35568;48.104;11.782;2024-03-06T11:24:23;95508.29;;;5.53;54.79
48156;BME280;35568;48.104;11.782;2024-03-06T11:27:00;95509.60;;;5.73;54.61
48156;BME280;35568;48.104;11.782;2024-03-06T11:29:28;95508.51;;;5.67;55.03
48156;BME280;35568;48.104;11.782;2024-03-06T11:32:05;95508.56;;;5.76;54.71
48156;BME280;35568;48.104;11.782;2024-03-06T11:34:33;95507.28;;;5.64;55.17
48156;BME280;35568;48.104;11.782;2024-03-06T11:37:05;95508.11;;;5.21;55.74
48156;BME280;35568;48.104;11.782;2024-03-06T11:39:33;95509.23;;;4.98;55.74
48156;BME280;35568;48.104;11.782;2024-03-06T11:42:01;95510.34;;;5.32;56.32
48156;BME280;35568;48.104;11.782;2024-03-06T11:44:28;95511.90;;;5.25;56.11
48156;BME280;35568;48.104;11.782;2024-03-06T11:46:58;95513.55;;;5.87;55.91
48156;BME280;35568;48.104;11.782;2024-03-06T11:49:26;95512.17;;;5.38;55.27
48156;BME280;35568;48.104;11.782;2024-03-06T11:51:55;95515.82;;;5.15;56.06
48156;BME280;35568;48.104;11.782;2024-03-06T11:54:24;95517.42;;;5.87;55.56
48156;BME280;35568;48.104;11.782;2024-03-06T11:56:53;95514.85;;;5.58;55.35
48156;BME280;35568;48.104;11.782;2024-03-06T11:59:21;95517.27;;;5.38;56.06
48156;BME280;35568;48.104;11.782;2024-03-06T12:01:49;95518.59;;;5.43;55.48
48156;BME280;35568;48.104;11.782;2024-03-06T12:04:16;95522.05;;;5.60;55.91
48156;BME280;35568;48.104;11.782;2024-03-06T12:06:45;95521.68;;;5.27;55.74
48156;BME280;35568;48.104;11.782;2024-03-06T12:09:12;95523.81;;;5.35;56.24
48156;BME280;35568;48.104;11.782;2024-03-06T12:11:39;95523.13;;;5.69;56.57
48156;BME280;35568;48.104;11.782;2024-03-06T12:14:06;95525.82;;;5.15;56.01
48156;BME280;35568;48.104;11.782;2024-03-06T12:16:33;95524.51;;;6.18;54.68
48156;BME280;35568;48.104;11.782;2024-03-06T12:19:00;95526.35;;;6.37;54.06
48156;BME280;35568;48.104;11.782;2024-03-06T12:21:29;95531.53;;;5.91;55.11
48156;BME280;35568;48.104;11.782;2024-03-06T12:24:07;95528.67;;;5.81;55.07
48156;BME280;35568;48.104;11.782;2024-03-06T12:26:35;95530.80;;;5.60;55.29
48156;BME280;35568;48.104;11.782;2024-03-06T12:29:05;95531.57;;;5.73;55.21
48156;BME280;35568;48.104;11.782;2024-03-06T12:32:29;95533.21;;;6.29;55.97
48156;BME280;35568;48.104;11.782;2024-03-06T12:34:57;95534.50;;;5.59;55.59
48156;BME280;35568;48.104;11.782;2024-03-06T12:37:30;95538.68;;;5.91;54.58
48156;BME280;35568;48.104;11.782;2024-03-06T12:39:57;95537.51;;;5.79;54.64
48156;BME280;35568;48.104;11.782;2024-03-06T12:42:24;95539.76;;;5.86;55.28
48156;BME280;35568;48.104;11.782;2024-03-06T12:44:51;95538.82;;;5.44;55.73
48156;BME280;35568;48.104;11.782;2024-03-06T12:47:19;95542.17;;;5.76;55.61
48156;BME280;35568;48.104;11.782;2024-03-06T12:49:47;95543.20;;;5.53;55.21
48156;BME280;35568;48.104;11.782;2024-03-06T12:52:14;95545.32;;;6.16;55.77
48156;BME280;35568;48.104;11.782;2024-03-06T12:54:41;95544.70;;;6.05;55.55
48156;BME280;35568;48.104;11.782;2024-03-06T12:57:08;95543.05;;;5.93;55.59
48156;BME280;35568;48.104;11.782;2024-03-06T12:59:35;95545.11;;;6.05;55.40
48156;BME280;35568;48.104;11.782;2024-03-06T13:02:02;95545.65;;;5.96;55.13
48156;BME280;35568;48.104;11.782;2024-03-06T13:04:29;95547.34;;;5.93;54.26